sensor_id;sensor_type;location;lat;lon;timestamp;pressure;altitude;pressure_sealevel;temperature;humidity
62694;BME280;48759;52.544;13.418;2023-06-14T00:00:37;101174.75;;;9.63;nan
62694;BME280;48759;52.544;13.418;2023-06-14T00:03:06;101185.66;;;9.56;nan
62694;BME280;48759;52.544;13.418;2023-06-14T00:05:33;101180.25;;;9.63;nan
62694;BME280;48759;52.544;13.418;2023-06-14T00:08:05;101180.75;;;9.52;nan
62694;BME280;48759;52.544;13.418;2023-06-14T00:10:33;101178.44;;;9.41;nan
62694;BME280;48759;52.544;13.418;2023-06-14T00:13:00;101183.03;;;9.26;nan
62694;BME280;48759;52.544;13.418;2023-06-14T00:15:27;101185.69;;;9.19;nan
62694;BME280;48759;52.544;13.418;2023-06-14T00:17:56;101187.94;;;9.15;nan
62694;BME280;48759;52.544;13.418;2023-06-14T00:20:26;101190.41;;;9.10;nan
62694;BME280;48759;52.544;13.418;2023-06-14T00:22:53;101188.25;;;9.20;nan
62694;BME280;48759;52.544;13.418;2023-06-14T00:25:22;101181.31;;;9.10;nan
62694;BME280;48759;52.544;13.418;2023-06-14T00:27:50;101189.00;;;9.14;nan
62694;BME280;48759;52.544;13.418;2023-06-14T00:30:17;101192.84;;;9.05;nan
62694;BME280;48759;52.544;13.418;2023-06-14T00:32:44;101185.09;;;9.09;nan
62694;BME280;48759;52.544;13.418;2023-06-14T00:35:11;101187.53;;;9.04;nan
62694;BME280;48759;52.544;13.418;2023-06-14T00:37:37;101190.47;;;9.02;nan
62694;BME280;48759;52.544;13.418;2023-06-14T00:40:06;101193.81;;;9.12;nan
62694;BME280;48759;52.544;13.418;2023-06-14T00:42:34;101192.84;;;9.05;nan
62694;BME280;48759;52.544;13.418;2023-06-14T00:45:01;101189.56;;;8.87;nan
62694;BME280;48759;52.544;13.418;2023-06-14T00:47:27;101188.72;;;8.87;nan
62694;BME280;48759;52.544;13.418;2023-06-14T00:49:54;101198.53;;;8.81;nan
62694;BME280;48759;52.544;13.418;2023-06-14T00:52:22;101190.53;;;8.94;nan
62694;BME280;48759;52.544;13.418;2023-06-14T00:54:49;101196.53;;;8.98;nan
62694;BME280;48759;52.544;13.418;2023-06-14T00:57:16;101193.97;;;8.96;nan
62694;BME280;48759;52.544;13.418;2023-06-14T00:59:45;101187.38;;;9.05;nan
62694;BME280;48759;52.544;13.418;2023-06-14T01:02:12;101187.81;;;9.09;nan
62694;BME280;48759;52.544;13.418;2023-06-14T01:04:40;101189.19;;;9.13;nan
62694;BME280;48759;52.544;13.418;2023-06-14T01:07:15;101186.63;;;9.11;nan
62694;BME280;48759;52.544;13.418;2023-06-14T01:09:55;101188.78;;;9.16;nan
62694;BME280;48759;52.544;13.418;2023-06-14T01:12:29;101193.81;;;9.12;nan
62694;BME280;48759;52.544;13.418;2023-06-14T01:14:59;101189.06;;;9.06;nan
62694;BME280;48759;52.544;13.418;2023-06-14T01:17:27;101185.66;;;9.04;nan
62694;BME280;48759;52.544;13.418;2023-06-14T01:19:57;101190.66;;;9.01;nan
62694;BME280;48759;52.544;13.418;2023-06-14T01:22:25;101192.00;;;9.05;nan
62694;BME280;48759;52.544;13.418;2023-06-14T01:24:54;101188.75;;;9.01;nan
62694;BME280;48759;52.544;13.418;2023-06-14T01:27:22;101189.56;;;8.87;nan
62694;BME280;48759;52.544;13.418;2023-06-14T01:29:54;101192.25;;;8.95;nan
62694;BME280;48759;52.544;13.418;2023-06-14T01:32:23;101189.22;;;8.90;nan
62694;BME280;48759;52.544;13.418;2023-06-14T01:34:50;101180.47;;;8.87;nan
62694;BME280;48759;52.544;13.418;2023-06-14T01:37:18;101186.75;;;8.95;nan
62694;BME280;48759;52.544;13.418;2023-06-14T01:39:47;101185.72;;;8.96;nan
62694;BME280;48759;52.544;13.418;2023-06-14T01:42:17;101183.72;;;8.90;nan
62694;BME280;48759;52.544;13.418;2023-06-14T01:44:45;101185.19;;;8.78;nan
62694;BME280;48759;52.544;13.418;2023-06-14T01:47:14;101177.97;;;8.77;nan
62694;BME280;48759;52.544;13.418;2023-06-14T01:49:41;101187.75;;;8.79;nan
62694;BME280;48759;52.544;13.418;2023-06-14T01:52:07;101189.81;;;8.77;nan
62694;BME280;48759;52.544;13.418;2023-06-14T01:54:35;101185.69;;;8.59;nan
62694;BME280;48759;52.544;13.418;2023-06-14T01:57:07;101181.59;;;8.55;nan
62694;BME280;48759;52.544;13.418;2023-06-14T01:59:35;101189.94;;;8.61;nan
62694;BME280;48759;52.544;13.418;2023-06-14T02:02:02;101191.16;;;8.59;nan
62694;BME280;48759;52.544;13.418;2023-06-14T02:04:29;101180.44;;;8.49;nan
62694;BME280;48759;52.544;13.418;2023-06-14T02:06:56;101190.91;;;8.45;nan
62694;BME280;48759;52.544;13.418;2023-06-14T02:09:23;101196.75;;;8.42;nan
62694;BME280;48759;52.544;13.418;2023-06-14T02:11:50;101193.69;;;8.37;nan
62694;BME280;48759;52.544;13.418;2023-06-14T02:14:17;101195.44;;;8.30;nan
62694;BME280;48759;52.544;13.418;2023-06-14T02:16:45;101200.97;;;8.22;nan
62694;BME280;48759;52.544;13.418;2023-06-14T02:19:14;101198.41;;;8.21;nan
62694;BME280;48759;52.544;13.418;2023-06-14T02:21:41;101198.41;;;8.21;nan
62694;BME280;48759;52.544;13.418;2023-06-14T02:24:08;101197.22;;;8.23;nan
62694;BME280;48759;52.544;13.418;2023-06-14T02:26:35;101193.09;;;8.27;nan
62694;BME280;48759;52.544;13.418;2023-06-14T02:29:03;101201.78;;;8.31;nan
62694;BME280;48759;52.544;13.418;2023-06-14T02:31:30;101202.66;;;8.31;nan
62694;BME280;48759;52.544;13.418;2023-06-14T02:33:58;101198.22;;;8.22;nan
62694;BME280;48759;52.544;13.418;2023-06-14T02:36:25;101196.22;;;8.08;nan
62694;BME280;48759;52.544;13.418;2023-06-14T02:38:51;101202.06;;;8.13;nan
62694;BME280;48759;52.544;13.418;2023-06-14T02:41:19;101202.56;;;8.17;nan
62694;BME280;48759;52.544;13.418;2023-06-14T02:43:46;101202.69;;;8.23;nan
62694;BME280;48759;52.544;13.418;2023-06-14T02:46:12;101205.47;;;8.15;nan
62694;BME280;48759;52.544;13.418;2023-06-14T02:48:39;101202.22;;;8.20;nan
62694;BME280;48759;52.544;13.418;2023-06-14T02:51:07;101211.66;;;8.09;nan
62694;BME280;48759;52.544;13.418;2023-06-14T02:53:34;101208.59;;;8.04;nan
62694;BME280;48759;52.544;13.418;2023-06-14T02:56:01;101206.13;;;8.25;nan
62694;BME280;48759;52.544;13.418;2023-06-14T02:58:29;101201.34;;;8.19;nan
62694;BME280;48759;52.544;13.418;2023-06-14T03:00:55;101202.81;;;8.30;nan
62694;BME280;48759;52.544;13.418;2023-06-14T03:03:22;101200.97;;;8.22;nan
62694;BME280;48759;52.544;13.418;2023-06-14T03:05:50;101195.16;;;8.25;nan
62694;BME280;48759;52.544;13.418;2023-06-14T03:08:18;101194.50;;;8.15;nan
62694;BME280;48759;52.544;13.418;2023-06-14T03:10:45;101194.84;;;8.12;nan
62694;BME280;48759;52.544;13.418;2023-06-14T03:13:12;101198.09;;;8.16;nan
62694;BME280;48759;52.544;13.418;2023-06-14T03:15:39;101194.16;;;8.18;nan
62694;BME280;48759;52.544;13.418;2023-06-14T03:18:09;101197.38;;;8.22;nan
62694;BME280;48759;52.544;13.418;2023-06-14T03:20:37;101194.41;;;8.31;nan
62694;BME280;48759;52.544;13.418;2023-06-14T03:23:04;101199.91;;;8.31;nan
62694;BME280;48759;52.544;13.418;2023-06-14T03:25:33;101200.59;;;8.33;nan
62694;BME280;48759;52.544;13.418;2023-06-14T03:28:01;101203.69;;;8.30;nan
62694;BME280;48759;52.544;13.418;2023-06-14T03:30:27;101203.69;;;8.30;nan
62694;BME280;48759;52.544;13.418;2023-06-14T03:32:55;101200.97;;;8.22;nan
62694;BME280;48759;52.544;13.418;2023-06-14T03:35:22;101206.38;;;8.38;nan
62694;BME280;48759;52.544;13.418;2023-06-14T03:37:49;101204.44;;;8.47;nan
62694;BME280;48759;52.544;13.418;2023-06-14T03:40:18;101209.56;;;8.50;nan
62694;BME280;48759;52.544;13.418;2023-06-14T03:42:47;101212.78;;;8.54;nan
62694;BME280;48759;52.544;13.418;2023-06-14T03:45:14;101207.00;;;8.49;nan
62694;BME280;48759;52.544;13.418;2023-06-14T03:47:40;101212.84;;;8.45;nan
62694;BME280;48759;52.544;13.418;2023-06-14T03:50:07;101218.28;;;8.54;nan
62694;BME280;48759;52.544;13.418;2023-06-14T03:52:34;101223.59;;;8.55;nan
62694;BME280;48759;52.544;13.418;2023-06-14T03:55:02;101220.66;;;8.57;nan
62694;BME280;48759;52.544;13.418;2023-06-14T03:57:29;101223.66;;;8.70;nan
62694;BME280;48759;52.544;13.418;2023-06-14T03:59:57;101226.34;;;8.78;nan
62694;BME280;48759;52.544;13.418;2023-06-14T04:02:24;101221.41;;;8.96;nan
62694;BME280;48759;52.544;13.418;2023-06-14T04:04:54;101230.91;;;9.08;nan
62694;BME280;48759;52.544;13.418;2023-06-14T04:07:20;101233.97;;;9.13;nan
62694;BME280;48759;52.544;13.418;2023-06-14T04:09:48;101237.94;;;9.11;nan
62694;BME280;48759;52.544;13.418;2023-06-14T04:12:15;101237.81;;;9.04;nan
62694;BME280;48759;52.544;13.418;2023-06-14T04:14:41;101241.75;;;9.25;nan
62694;BME280;48759;52.544;13.418;2023-06-14T04:17:09;101241.75;;;9.25;nan
62694;BME280;48759;52.544;13.418;2023-06-14T04:19:36;101245.25;;;9.41;nan
62694;BME280;48759;52.544;13.418;2023-06-14T04:22:03;101244.69;;;9.46;nan
62694;BME280;48759;52.544;13.418;2023-06-14T04:24:30;101245.56;;;9.61;nan
62694;BME280;48759;52.544;13.418;2023-06-14T04:27:00;101244.50;;;9.62;nan
62694;BME280;48759;52.544;13.418;2023-06-14T04:29:27;101248.69;;;9.87;nan
62694;BME280;48759;52.544;13.418;2023-06-14T04:31:55;101242.91;;;9.97;nan
62694;BME280;48759;52.544;13.418;2023-06-14T04:34:25;101257.44;;;10.06;nan
62694;BME280;48759;52.544;13.418;2023-06-14T04:36:55;101251.16;;;10.12;nan
62694;BME280;48759;52.544;13.418;2023-06-14T04:39:23;101245.38;;;10.21;nan
62694;BME280;48759;52.544;13.418;2023-06-14T04:41:50;101247.53;;;10.26;nan
62694;BME280;48759;52.544;13.418;2023-06-14T04:44:22;101241.94;;;10.19;nan
62694;BME280;48759;52.544;13.418;2023-06-14T04:46:49;101243.19;;;10.31;nan
62694;BME280;48759;52.544;13.418;2023-06-14T04:49:17;101249.81;;;10.37;nan
62694;BME280;48759;52.544;13.418;2023-06-14T04:51:45;101251.78;;;10.43;nan
62694;BME280;48759;52.544;13.418;2023-06-14T04:54:16;101247.81;;;10.46;nan
62694;BME280;48759;52.544;13.418;2023-06-14T04:56:44;101252.25;;;10.61;nan
62694;BME280;48759;52.544;13.418;2023-06-14T04:59:12;101249.75;;;10.66;nan
62694;BME280;48759;52.544;13.418;2023-06-14T05:01:40;101254.81;;;10.63;nan
62694;BME280;48759;52.544;13.418;2023-06-14T05:04:06;101257.34;;;10.64;nan
62694;BME280;48759;52.544;13.418;2023-06-14T05:06:33;101254.81;;;10.63;nan
62694;BME280;48759;52.544;13.418;2023-06-14T05:09:03;101257.53;;;10.78;nan
62694;BME280;48759;52.544;13.418;2023-06-14T05:11:29;101246.88;;;10.74;nan
62694;BME280;48759;52.544;13.418;2023-06-14T05:13:56;101248.16;;;10.72;nan
62694;BME280;48759;52.544;13.418;2023-06-14T05:16:23;101248.06;;;10.65;nan
62694;BME280;48759;52.544;13.418;2023-06-14T05:18:51;101244.31;;;10.73;nan
62694;BME280;48759;52.544;13.418;2023-06-14T05:21:17;101257.66;;;10.91;nan
62694;BME280;48759;52.544;13.418;2023-06-14T05:23:44;101266.72;;;10.85;nan
62694;BME280;48759;52.544;13.418;2023-06-14T05:26:13;101263.72;;;11.01;nan
62694;BME280;48759;52.544;13.418;2023-06-14T05:28:40;101278.91;;;11.39;nan
62694;BME280;48759;52.544;13.418;2023-06-14T05:31:06;101266.56;;;11.84;nan
62694;BME280;48759;52.544;13.418;2023-06-14T05:33:35;101268.88;;;12.15;nan
62694;BME280;48759;52.544;13.418;2023-06-14T05:36:02;101270.72;;;12.43;nan
62694;BME280;48759;52.544;13.418;2023-06-14T05:38:29;101263.53;;;12.55;nan
62694;BME280;48759;52.544;13.418;2023-06-14T05:40:55;101275.03;;;12.58;nan
62694;BME280;48759;52.544;13.418;2023-06-14T05:43:24;101278.50;;;12.67;nan
62694;BME280;48759;52.544;13.418;2023-06-14T05:45:51;101278.53;;;12.80;nan
62694;BME280;48759;52.544;13.418;2023-06-14T05:48:18;101274.34;;;13.04;nan
62694;BME280;48759;52.544;13.418;2023-06-14T05:50:44;101278.81;;;12.98;nan
62694;BME280;48759;52.544;13.418;2023-06-14T05:53:11;101274.56;;;13.02;nan
62694;BME280;48759;52.544;13.418;2023-06-14T05:55:38;101286.66;;;13.01;nan
62694;BME280;48759;52.544;13.418;2023-06-14T05:58:07;101288.00;;;13.38;nan
62694;BME280;48759;52.544;13.418;2023-06-14T06:00:35;101289.72;;;13.46;nan
62694;BME280;48759;52.544;13.418;2023-06-14T06:03:02;101287.78;;;13.40;nan
62694;BME280;48759;52.544;13.418;2023-06-14T06:05:33;101289.00;;;12.91;nan
62694;BME280;48759;52.544;13.418;2023-06-14T06:08:00;101294.28;;;12.86;nan
62694;BME280;48759;52.544;13.418;2023-06-14T06:10:28;101289.66;;;13.07;nan
62694;BME280;48759;52.544;13.418;2023-06-14T06:12:56;101280.31;;;13.08;nan
62694;BME280;48759;52.544;13.418;2023-06-14T06:15:23;101293.69;;;13.11;nan
62694;BME280;48759;52.544;13.418;2023-06-14T06:17:53;101283.75;;;13.23;nan
62694;BME280;48759;52.544;13.418;2023-06-14T06:20:21;101281.19;;;13.28;nan
62694;BME280;48759;52.544;13.418;2023-06-14T06:22:54;101284.59;;;13.43;nan
62694;BME280;48759;52.544;13.418;2023-06-14T06:25:20;101289.69;;;13.39;nan
62694;BME280;48759;52.544;13.418;2023-06-14T06:27:48;101290.81;;;13.58;nan
62694;BME280;48759;52.544;13.418;2023-06-14T06:30:15;101288.84;;;13.32;nan
62694;BME280;48759;52.544;13.418;2023-06-14T06:32:45;101286.50;;;13.49;nan
62694;BME280;48759;52.544;13.418;2023-06-14T06:35:14;101288.84;;;13.26;nan
62694;BME280;48759;52.544;13.418;2023-06-14T06:37:41;101286.28;;;13.18;nan
62694;BME280;48759;52.544;13.418;2023-06-14T06:40:09;101282.66;;;13.24;nan
62694;BME280;48759;52.544;13.418;2023-06-14T06:42:38;101277.38;;;13.29;nan
62694;BME280;48759;52.544;13.418;2023-06-14T06:45:05;101273.94;;;13.40;nan
62694;BME280;48759;52.544;13.418;2023-06-14T06:47:33;101283.16;;;13.60;nan
62694;BME280;48759;52.544;13.418;2023-06-14T06:50:00;101289.75;;;13.66;nan
62694;BME280;48759;52.544;13.418;2023-06-14T06:52:29;101296.72;;;13.95;nan
62694;BME280;48759;52.544;13.418;2023-06-14T06:55:06;101287.03;;;14.57;nan
62694;BME280;48759;52.544;13.418;2023-06-14T06:57:34;101289.84;;;14.30;nan
62694;BME280;48759;52.544;13.418;2023-06-14T07:00:00;101287.47;;;14.34;nan
62694;BME280;48759;52.544;13.418;2023-06-14T07:02:30;101302.03;;;14.87;nan
62694;BME280;48759;52.544;13.418;2023-06-14T07:04:57;101299.88;;;15.20;nan
62694;BME280;48759;52.544;13.418;2023-06-14T07:07:24;101308.66;;;15.17;nan
62694;BME280;48759;52.544;13.418;2023-06-14T07:09:52;101315.59;;;15.33;nan
62694;BME280;48759;52.544;13.418;2023-06-14T07:12:19;101317.59;;;14.88;nan
62694;BME280;48759;52.544;13.418;2023-06-14T07:14:46;101318.59;;;15.31;nan
62694;BME280;48759;52.544;13.418;2023-06-14T07:17:14;101329.06;;;15.61;nan
62694;BME280;48759;52.544;13.418;2023-06-14T07:19:41;101325.41;;;15.42;nan
62694;BME280;48759;52.544;13.418;2023-06-14T07:22:08;101320.72;;;15.29;nan
62694;BME280;48759;52.544;13.418;2023-06-14T07:24:35;101326.84;;;15.45;nan
62694;BME280;48759;52.544;13.418;2023-06-14T07:27:05;101332.69;;;15.61;nan
62694;BME280;48759;52.544;13.418;2023-06-14T07:29:33;101325.50;;;15.54;nan
62694;BME280;48759;52.544;13.418;2023-06-14T07:31:59;101321.91;;;15.78;nan
62694;BME280;48759;52.544;13.418;2023-06-14T07:34:27;101327.28;;;15.73;nan
62694;BME280;48759;52.544;13.418;2023-06-14T07:36:55;101321.50;;;15.50;nan
62694;BME280;48759;52.544;13.418;2023-06-14T07:39:21;101328.22;;;15.85;nan
62694;BME280;48759;52.544;13.418;2023-06-14T07:41:48;101332.69;;;16.11;nan
62694;BME280;48759;52.544;13.418;2023-06-14T07:44:17;101335.63;;;16.59;nan
62694;BME280;48759;52.544;13.418;2023-06-14T07:46:45;101335.47;;;16.72;nan
62694;BME280;48759;52.544;13.418;2023-06-14T07:49:16;101325.28;;;16.85;nan
62694;BME280;48759;52.544;13.418;2023-06-14T07:51:42;101332.81;;;17.14;nan
62694;BME280;48759;52.544;13.418;2023-06-14T07:54:12;101337.84;;;17.05;nan
62694;BME280;48759;52.544;13.418;2023-06-14T07:56:39;101321.91;;;16.94;nan
62694;BME280;48759;52.544;13.418;2023-06-14T07:59:06;101319.41;;;16.93;nan
62694;BME280;48759;52.544;13.418;2023-06-14T08:01:34;101323.00;;;16.93;nan
62694;BME280;48759;52.544;13.418;2023-06-14T08:04:13;101332.44;;;16.92;nan
62694;BME280;48759;52.544;13.418;2023-06-14T08:06:40;101322.91;;;17.18;nan
62694;BME280;48759;52.544;13.418;2023-06-14T08:09:09;101319.16;;;17.12;nan
62694;BME280;48759;52.544;13.418;2023-06-14T08:11:37;101312.06;;;17.70;nan
62694;BME280;48759;52.544;13.418;2023-06-14T08:14:04;101310.59;;;17.26;nan
62694;BME280;48759;52.544;13.418;2023-06-14T08:16:31;101314.31;;;17.08;nan
62694;BME280;48759;52.544;13.418;2023-06-14T08:19:00;101313.84;;;16.93;nan
62694;BME280;48759;52.544;13.418;2023-06-14T08:21:27;101315.00;;;16.85;nan
62694;BME280;48759;52.544;13.418;2023-06-14T08:24:00;101309.44;;;17.03;nan
62694;BME280;48759;52.544;13.418;2023-06-14T08:26:30;101305.53;;;17.34;nan
62694;BME280;48759;52.544;13.418;2023-06-14T08:29:04;101309.00;;;17.18;nan
62694;BME280;48759;52.544;13.418;2023-06-14T08:31:33;101312.09;;;17.10;nan
62694;BME280;48759;52.544;13.418;2023-06-14T08:34:03;101314.84;;;17.28;nan
62694;BME280;48759;52.544;13.418;2023-06-14T08:36:31;101306.19;;;17.06;nan
62694;BME280;48759;52.544;13.418;2023-06-14T08:38:58;101307.66;;;16.91;nan
62694;BME280;48759;52.544;13.418;2023-06-14T08:41:26;101305.28;;;17.24;nan
62694;BME280;48759;52.544;13.418;2023-06-14T08:43:55;101297.06;;;17.29;nan
62694;BME280;48759;52.544;13.418;2023-06-14T08:46:25;101307.75;;;17.32;nan
62694;BME280;48759;52.544;13.418;2023-06-14T08:48:55;101300.38;;;17.49;nan
62694;BME280;48759;52.544;13.418;2023-06-14T08:51:25;101300.25;;;17.86;nan
62694;BME280;48759;52.544;13.418;2023-06-14T08:54:00;101302.50;;;18.47;nan
62694;BME280;48759;52.544;13.418;2023-06-14T08:56:29;101304.75;;;18.85;nan
62694;BME280;48759;52.544;13.418;2023-06-14T08:58:57;101309.91;;;19.05;nan
62694;BME280;48759;52.544;13.418;2023-06-14T09:01:28;101309.94;;;19.50;nan
62694;BME280;48759;52.544;13.418;2023-06-14T09:03:56;101313.06;;;19.70;nan
62694;BME280;48759;52.544;13.418;2023-06-14T09:06:25;101312.53;;;19.40;nan
62694;BME280;48759;52.544;13.418;2023-06-14T09:08:55;101316.50;;;19.27;nan
62694;BME280;48759;52.544;13.418;2023-06-14T09:11:22;101324.69;;;19.96;nan
62694;BME280;48759;52.544;13.418;2023-06-14T09:13:51;101312.81;;;19.89;nan
62694;BME280;48759;52.544;13.418;2023-06-14T09:16:18;101322.22;;;20.16;nan
62694;BME280;48759;52.544;13.418;2023-06-14T09:18:47;101324.75;;;20.34;nan
62694;BME280;48759;52.544;13.418;2023-06-14T09:21:14;101337.25;;;20.48;nan
62694;BME280;48759;52.544;13.418;2023-06-14T09:23:44;101323.44;;;20.80;nan
62694;BME280;48759;52.544;13.418;2023-06-14T09:26:12;101326.13;;;20.92;nan
62694;BME280;48759;52.544;13.418;2023-06-14T09:28:41;101318.38;;;21.48;nan
62694;BME280;48759;52.544;13.418;2023-06-14T09:31:08;101330.22;;;21.55;nan
62694;BME280;48759;52.544;13.418;2023-06-14T09:33:36;101329.97;;;20.86;nan
62694;BME280;48759;52.544;13.418;2023-06-14T09:36:03;101326.50;;;20.79;nan
62694;BME280;48759;52.544;13.418;2023-06-14T09:38:31;101325.00;;;21.42;nan
62694;BME280;48759;52.544;13.418;2023-06-14T09:41:03;101329.28;;;21.22;nan
62694;BME280;48759;52.544;13.418;2023-06-14T09:43:30;101316.53;;;21.31;nan
62694;BME280;48759;52.544;13.418;2023-06-14T09:46:00;101325.06;;;22.05;nan
62694;BME280;48759;52.544;13.418;2023-06-14T09:48:27;101325.84;;;21.69;nan
62694;BME280;48759;52.544;13.418;2023-06-14T09:50:55;101323.53;;;21.61;nan
62694;BME280;48759;52.544;13.418;2023-06-14T09:53:25;101321.94;;;21.70;nan
62694;BME280;48759;52.544;13.418;2023-06-14T09:55:53;101329.44;;;21.91;nan
62694;BME280;48759;52.544;13.418;2023-06-14T09:58:26;101339.59;;;21.44;nan
62694;BME280;48759;52.544;13.418;2023-06-14T10:00:54;101322.72;;;21.92;nan
62694;BME280;48759;52.544;13.418;2023-06-14T10:03:25;101315.72;;;21.36;nan
62694;BME280;48759;52.544;13.418;2023-06-14T10:05:55;101332.03;;;20.95;nan
62694;BME280;48759;52.544;13.418;2023-06-14T10:08:27;101322.94;;;20.62;nan
62694;BME280;48759;52.544;13.418;2023-06-14T10:10:55;101327.88;;;20.76;nan
62694;BME280;48759;52.544;13.418;2023-06-14T10:13:26;101330.88;;;21.18;nan
62694;BME280;48759;52.544;13.418;2023-06-14T10:16:07;101313.63;;;21.48;nan
62694;BME280;48759;52.544;13.418;2023-06-14T10:18:44;101316.97;;;21.77;nan
62694;BME280;48759;52.544;13.418;2023-06-14T10:21:18;101315.72;;;21.63;nan
62694;BME280;48759;52.544;13.418;2023-06-14T10:23:49;101318.28;;;21.69;nan
62694;BME280;48759;52.544;13.418;2023-06-14T10:26:22;101326.09;;;21.94;nan
62694;BME280;48759;52.544;13.418;2023-06-14T10:28:59;101321.19;;;21.80;nan
62694;BME280;48759;52.544;13.418;2023-06-14T10:31:42;101312.88;;;21.31;nan
62694;BME280;48759;52.544;13.418;2023-06-14T10:34:12;101308.91;;;21.54;nan
62694;BME280;48759;52.544;13.418;2023-06-14T10:37:01;101304.94;;;22.13;nan
62694;BME280;48759;52.544;13.418;2023-06-14T10:39:29;101304.81;;;22.87;nan
62694;BME280;48759;52.544;13.418;2023-06-14T10:41:57;101299.78;;;22.95;nan
62694;BME280;48759;52.544;13.418;2023-06-14T10:44:54;101298.94;;;22.99;nan
62694;BME280;48759;52.544;13.418;2023-06-14T10:47:23;101298.19;;;23.24;nan
62694;BME280;48759;52.544;13.418;2023-06-14T10:49:52;101300.88;;;22.36;nan
62694;BME280;48759;52.544;13.418;2023-06-14T10:52:27;101294.47;;;22.46;nan
62694;BME280;48759;52.544;13.418;2023-06-14T10:55:02;101294.44;;;22.41;nan
62694;BME280;48759;52.544;13.418;2023-06-14T10:57:29;101291.72;;;22.09;nan
62694;BME280;48759;52.544;13.418;2023-06-14T10:59:59;101293.56;;;21.34;nan
62694;BME280;48759;52.544;13.418;2023-06-14T11:02:49;101284.53;;;21.54;nan
62694;BME280;48759;52.544;13.418;2023-06-14T11:05:23;101284.13;;;21.41;nan
62694;BME280;48759;52.544;13.418;2023-06-14T11:10:41;101271.19;;;21.34;nan
62694;BME280;48759;52.544;13.418;2023-06-14T11:13:10;101279.78;;;21.55;nan
62694;BME280;48759;52.544;13.418;2023-06-14T11:15:43;101275.56;;;21.89;nan
62694;BME280;48759;52.544;13.418;2023-06-14T11:18:12;101277.72;;;22.14;nan
62694;BME280;48759;52.544;13.418;2023-06-14T11:20:41;101278.31;;;22.58;nan
62694;BME280;48759;52.544;13.418;2023-06-14T11:23:10;101274.94;;;22.56;nan
62694;BME280;48759;52.544;13.418;2023-06-14T11:25:36;101262.44;;;22.89;nan
62694;BME280;48759;52.544;13.418;2023-06-14T11:28:04;101262.06;;;22.75;nan
62694;BME280;48759;52.544;13.418;2023-06-14T11:30:30;101259.31;;;22.85;nan
62694;BME280;48759;52.544;13.418;2023-06-14T11:32:59;101264.16;;;23.05;nan
62694;BME280;48759;52.544;13.418;2023-06-14T11:35:26;101258.31;;;23.32;nan
62694;BME280;48759;52.544;13.418;2023-06-14T11:37:53;101262.84;;;23.89;nan
62694;BME280;48759;52.544;13.418;2023-06-14T11:40:23;101257.13;;;24.34;nan
62694;BME280;48759;52.544;13.418;2023-06-14T11:42:50;101250.97;;;24.37;nan
62694;BME280;48759;52.544;13.418;2023-06-14T11:45:24;101245.16;;;24.78;nan
62694;BME280;48759;52.544;13.418;2023-06-14T11:47:55;101239.28;;;25.19;nan
62694;BME280;48759;52.544;13.418;2023-06-14T11:50:30;101234.03;;;25.80;nan
62694;BME280;48759;52.544;13.418;2023-06-14T11:52:59;101234.50;;;25.19;nan
62694;BME280;48759;52.544;13.418;2023-06-14T11:55:32;101229.50;;;25.11;nan
62694;BME280;48759;52.544;13.418;2023-06-14T11:58:02;101222.19;;;25.10;nan
62694;BME280;48759;52.544;13.418;2023-06-14T12:00:28;101223.25;;;24.65;nan
62694;BME280;48759;52.544;13.418;2023-06-14T12:02:57;101218.81;;;24.49;nan
62694;BME280;48759;52.544;13.418;2023-06-14T12:05:25;101222.91;;;24.07;nan
62694;BME280;48759;52.544;13.418;2023-06-14T12:08:01;101219.00;;;23.88;nan
62694;BME280;48759;52.544;13.418;2023-06-14T12:10:29;101204.28;;;22.74;nan
62694;BME280;48759;52.544;13.418;2023-06-14T12:12:59;101211.63;;;22.28;nan
62694;BME280;48759;52.544;13.418;2023-06-14T12:15:28;101206.56;;;21.41;nan
62694;BME280;48759;52.544;13.418;2023-06-14T12:17:56;101204.00;;;21.08;nan
62694;BME280;48759;52.544;13.418;2023-06-14T12:20:29;101200.50;;;20.95;nan
62694;BME280;48759;52.544;13.418;2023-06-14T12:23:33;101186.66;;;21.43;nan
62694;BME280;48759;52.544;13.418;2023-06-14T12:26:04;101194.28;;;21.47;nan
62694;BME280;48759;52.544;13.418;2023-06-14T12:28:31;101200.69;;;21.43;nan
62694;BME280;48759;52.544;13.418;2023-06-14T12:30:58;101182.53;;;21.50;nan
62694;BME280;48759;52.544;13.418;2023-06-14T12:33:25;101183.81;;;21.74;nan
62694;BME280;48759;52.544;13.418;2023-06-14T12:35:54;101180.63;;;21.98;nan
62694;BME280;48759;52.544;13.418;2023-06-14T12:38:24;101184.88;;;22.05;nan
62694;BME280;48759;52.544;13.418;2023-06-14T12:40:50;101179.34;;;22.16;nan
62694;BME280;48759;52.544;13.418;2023-06-14T12:43:17;101182.16;;;22.21;nan
62694;BME280;48759;52.544;13.418;2023-06-14T12:45:44;101180.66;;;22.60;nan
62694;BME280;48759;52.544;13.418;2023-06-14T12:48:11;101181.31;;;22.98;nan
62694;BME280;48759;52.544;13.418;2023-06-14T12:50:38;101184.28;;;22.56;nan
62694;BME280;48759;52.544;13.418;2023-06-14T12:53:05;101175.38;;;22.74;nan
62694;BME280;48759;52.544;13.418;2023-06-14T12:55:33;101182.69;;;22.85;nan
62694;BME280;48759;52.544;13.418;2023-06-14T12:58:02;101167.88;;;23.60;nan
62694;BME280;48759;52.544;13.418;2023-06-14T13:00:28;101175.72;;;23.38;nan
62694;BME280;48759;52.544;13.418;2023-06-14T13:03:01;101169.53;;;23.11;nan
62694;BME280;48759;52.544;13.418;2023-06-14T13:05:30;101164.72;;;22.91;nan
62694;BME280;48759;52.544;13.418;2023-06-14T13:07:58;101166.13;;;22.99;nan
62694;BME280;48759;52.544;13.418;2023-06-14T13:10:25;101155.81;;;23.30;nan
62694;BME280;48759;52.544;13.418;2023-06-14T13:12:54;101156.97;;;24.38;nan
62694;BME280;48759;52.544;13.418;2023-06-14T13:15:23;101150.16;;;25.33;nan